createdAt,value
2023-03-10T00:00:59.219Z,999.66
2023-03-10T00:01:59.236Z,999.82
2023-03-10T00:02:59.233Z,999.91
2023-03-10T00:03:59.236Z,999.66
2023-03-10T00:04:59.317Z,999.62
2023-03-10T00:05:59.328Z,999.67
2023-03-10T00:06:59.226Z,999.65
2023-03-10T00:07:59.224Z,999.65
2023-03-10T00:08:59.237Z,999.65
2023-03-10T00:09:59.248Z,999.64
2023-03-10T00:10:59.227Z,999.52
2023-03-10T00:11:59.234Z,999.51
2023-03-10T00:12:59.228Z,999.49
2023-03-10T00:13:59.225Z,999.51
2023-03-10T00:14:59.268Z,999.67
2023-03-10T00:15:59.357Z,999.47
2023-03-10T00:16:59.219Z,999.29
2023-03-10T00:17:59.221Z,999.41
2023-03-10T00:18:59.235Z,999.46
2023-03-10T00:19:59.256Z,999.54
2023-03-10T00:20:59.254Z,999.48
2023-03-10T00:21:59.233Z,999.53
2023-03-10T00:22:59.233Z,999.49
2023-03-10T00:23:59.258Z,999.55
2023-03-10T00:24:59.232Z,999.45
2023-03-10T00:25:59.211Z,999.46
2023-03-10T00:26:59.227Z,999.39
2023-03-10T00:27:59.229Z,999.41
2023-03-10T00:28:59.241Z,999.41
2023-03-10T00:29:59.262Z,999.43
2023-03-10T00:30:59.271Z,999.34
2023-03-10T00:31:59.247Z,999.36
2023-03-10T00:32:59.235Z,999.43
2023-03-10T00:33:59.271Z,999.59
2023-03-10T00:34:59.255Z,999.24
2023-03-10T00:35:59.276Z,999.23
2023-03-10T00:36:59.231Z,999.23
2023-03-10T00:37:59.243Z,999.22
2023-03-10T00:38:59.241Z,999.36
2023-03-10T00:39:59.252Z,999.25
2023-03-10T00:40:59.246Z,999.26
2023-03-10T00:41:59.234Z,999.2
2023-03-10T00:42:59.230Z,999.31
2023-03-10T00:43:59.267Z,999.31
2023-03-10T00:44:59.258Z,999.15
2023-03-10T00:45:59.298Z,999.17
2023-03-10T00:46:59.241Z,999.26
2023-03-10T00:47:59.239Z,999.09
2023-03-10T00:48:59.271Z,999.09
2023-03-10T00:49:59.296Z,998.96
2023-03-10T00:50:59.257Z,999.06
2023-03-10T00:51:59.251Z,998.87
2023-03-10T00:52:59.253Z,998.86
2023-03-10T00:53:59.236Z,998.97
2023-03-10T00:54:59.245Z,998.96
2023-03-10T00:55:59.260Z,999.12
2023-03-10T00:56:59.236Z,999.07
2023-03-10T00:57:59.238Z,999.05
2023-03-10T00:58:59.269Z,999
2023-03-10T00:59:59.262Z,999.2
2023-03-10T01:00:59.239Z,998.88
2023-03-10T01:01:59.312Z,998.98
2023-03-10T01:02:59.244Z,999.16
2023-03-10T01:03:59.300Z,998.95
2023-03-10T01:04:59.271Z,998.77
2023-03-10T01:05:59.234Z,998.88
2023-03-10T01:06:59.245Z,998.83
2023-03-10T01:07:59.237Z,998.87
2023-03-10T01:08:59.240Z,998.87
2023-03-10T01:09:59.268Z,998.72
2023-03-10T01:10:59.236Z,998.7
2023-03-10T01:11:59.238Z,998.74
2023-03-10T01:12:59.242Z,998.65
2023-03-10T01:13:59.236Z,998.6
2023-03-10T01:14:59.267Z,998.58
2023-03-10T01:15:59.318Z,998.75
2023-03-10T01:16:59.221Z,998.86
2023-03-10T01:17:59.269Z,998.52
2023-03-10T01:18:59.238Z,998.58
2023-03-10T01:19:59.246Z,998.45
2023-03-10T01:20:59.248Z,998.48
2023-03-10T01:21:59.245Z,998.59
2023-03-10T01:22:59.239Z,998.56
2023-03-10T01:23:59.234Z,998.68
2023-03-10T01:24:59.270Z,998.69
2023-03-10T01:25:59.294Z,998.72
2023-03-10T01:26:59.240Z,998.5
2023-03-10T01:27:59.231Z,998.64
2023-03-10T01:28:59.248Z,998.41
2023-03-10T01:29:59.262Z,998.32
2023-03-10T01:30:59.298Z,998.3
2023-03-10T01:31:59.237Z,998.29
2023-03-10T01:32:59.241Z,998.37
2023-03-10T01:33:59.261Z,998.24
2023-03-10T01:34:59.263Z,998.3
2023-03-10T01:35:59.310Z,998.37
2023-03-10T01:36:59.244Z,998.43
2023-03-10T01:37:59.239Z,998.23
2023-03-10T01:38:59.235Z,998.53
2023-03-10T01:39:59.264Z,998.19
2023-03-10T01:40:59.240Z,998.26
2023-03-10T01:41:59.242Z,998.16
2023-03-10T01:42:59.233Z,998.08
2023-03-10T01:43:59.243Z,998.04
2023-03-10T01:44:59.250Z,998.11
2023-03-10T01:45:59.228Z,998.2
2023-03-10T01:46:59.443Z,998.34
2023-03-10T01:47:59.227Z,998.11
2023-03-10T01:48:59.230Z,998.02
2023-03-10T01:49:59.250Z,998.01
2023-03-10T01:50:59.230Z,998
2023-03-10T01:51:59.232Z,997.98
2023-03-10T01:52:59.233Z,997.98
2023-03-10T01:53:59.234Z,998.05
2023-03-10T01:54:59.256Z,998.11
2023-03-10T01:55:59.234Z,998.32
2023-03-10T01:56:59.233Z,998.11
2023-03-10T01:57:59.243Z,998.07
2023-03-10T01:58:59.235Z,997.94
2023-03-10T01:59:59.241Z,997.81
2023-03-10T02:00:59.261Z,997.93
2023-03-10T02:01:59.282Z,998.06
2023-03-10T02:02:59.221Z,997.84
2023-03-10T02:03:59.233Z,997.87
2023-03-10T02:04:59.255Z,997.72
2023-03-10T02:05:59.231Z,997.78
2023-03-10T02:06:59.231Z,997.85
2023-03-10T02:07:59.249Z,997.7
2023-03-10T02:08:59.223Z,997.7
2023-03-10T02:09:59.255Z,997.82
2023-03-10T02:10:59.234Z,997.72
2023-03-10T02:11:59.237Z,997.73
2023-03-10T02:12:59.231Z,997.88
2023-03-10T02:13:59.226Z,997.63
2023-03-10T02:14:59.261Z,997.8
2023-03-10T02:15:59.329Z,997.67
2023-03-10T02:16:59.232Z,997.73
2023-03-10T02:17:59.317Z,997.66
2023-03-10T02:18:59.233Z,997.8
2023-03-10T02:19:59.260Z,997.95
2023-03-10T02:20:59.261Z,997.78
2023-03-10T02:21:59.235Z,997.73
2023-03-10T02:22:59.240Z,997.65
2023-03-10T02:24:01.646Z,997.78
2023-03-10T02:24:59.238Z,997.6
2023-03-10T02:25:59.231Z,997.64
2023-03-10T02:26:59.243Z,997.58
2023-03-10T02:27:59.229Z,997.8
2023-03-10T02:28:59.238Z,997.63
2023-03-10T02:29:59.979Z,997.6
2023-03-10T02:30:59.223Z,997.64
2023-03-10T02:31:59.271Z,997.57
2023-03-10T02:32:59.257Z,997.48
2023-03-10T02:33:59.230Z,997.55
2023-03-10T02:34:59.238Z,997.38
2023-03-10T02:35:59.285Z,997.52
2023-03-10T02:36:59.236Z,997.45
2023-03-10T02:37:59.245Z,997.52
2023-03-10T02:38:59.245Z,997.37
2023-03-10T02:39:59.257Z,997.37
2023-03-10T02:40:59.232Z,997.37
2023-03-10T02:41:59.236Z,997.48
2023-03-10T02:42:59.227Z,997.45
2023-03-10T02:43:59.235Z,997.22
2023-03-10T02:44:59.288Z,997.18
2023-03-10T02:45:59.272Z,997.48
2023-03-10T02:46:59.239Z,997.35
2023-03-10T02:47:59.245Z,997.41
2023-03-10T02:48:59.241Z,997.2
2023-03-10T02:49:59.257Z,997.15
2023-03-10T02:50:59.239Z,997.19
2023-03-10T02:51:59.252Z,997.42
2023-03-10T02:52:59.234Z,997.1
2023-03-10T02:53:59.259Z,997.12
2023-03-10T02:54:59.249Z,997.19
2023-03-10T02:55:59.242Z,997.14
2023-03-10T02:56:59.243Z,997.01
2023-03-10T02:57:59.234Z,997.1
2023-03-10T02:58:59.235Z,997.03
2023-03-10T02:59:59.255Z,996.99
2023-03-10T03:00:59.305Z,997.17
2023-03-10T03:01:59.244Z,996.99
2023-03-10T03:02:59.254Z,997.09
2023-03-10T03:03:59.347Z,997.11
2023-03-10T03:04:59.281Z,997.12
2023-03-10T03:05:59.246Z,997.02
2023-03-10T03:06:59.226Z,996.99
2023-03-10T03:07:59.237Z,996.99
2023-03-10T03:08:59.236Z,996.99
2023-03-10T03:09:59.253Z,996.97
2023-03-10T03:10:59.255Z,997.02
2023-03-10T03:11:59.234Z,996.86
2023-03-10T03:12:59.247Z,996.92
2023-03-10T03:13:59.239Z,996.86
2023-03-10T03:14:59.246Z,996.91
2023-03-10T03:15:59.239Z,996.77
2023-03-10T03:16:59.391Z,996.75
2023-03-10T03:17:59.265Z,996.72
2023-03-10T03:18:59.264Z,996.84
2023-03-10T03:19:59.254Z,997.05
2023-03-10T03:20:59.237Z,996.68
2023-03-10T03:21:59.233Z,996.76
2023-03-10T03:22:59.243Z,996.74
2023-03-10T03:23:59.230Z,996.51
2023-03-10T03:24:59.268Z,996.64
2023-03-10T03:25:59.236Z,996.61
2023-03-10T03:26:59.244Z,996.75
2023-03-10T03:27:59.243Z,996.52
2023-03-10T03:28:59.240Z,996.65
2023-03-10T03:29:59.280Z,996.48
2023-03-10T03:30:59.224Z,996.52
2023-03-10T03:31:59.284Z,996.53
2023-03-10T03:32:59.247Z,996.44
2023-03-10T03:33:59.237Z,996.47
2023-03-10T03:34:59.248Z,996.39
2023-03-10T03:35:59.301Z,996.34
2023-03-10T03:36:59.237Z,996.62
2023-03-10T03:37:59.238Z,996.51
2023-03-10T03:38:59.228Z,996.53
2023-03-10T03:39:59.326Z,996.44
2023-03-10T03:40:59.245Z,996.57
2023-03-10T03:41:59.241Z,996.44
2023-03-10T03:42:59.231Z,996.42
2023-03-10T03:43:59.235Z,996.4
2023-03-10T03:44:59.256Z,996.41
2023-03-10T03:45:59.345Z,996.76
2023-03-10T03:46:59.218Z,996.34
2023-03-10T03:47:59.226Z,996.28
2023-03-10T03:48:59.229Z,996.36
2023-03-10T03:49:59.249Z,996.45
2023-03-10T03:50:59.236Z,996.4
2023-03-10T03:51:59.221Z,996.69
2023-03-10T03:52:59.219Z,996.31
2023-03-10T03:53:59.233Z,996.55
2023-03-10T03:54:59.252Z,996.36
2023-03-10T03:55:59.241Z,996.4
2023-03-10T03:56:59.231Z,996.26
2023-03-10T03:57:59.231Z,996.15
2023-03-10T03:58:59.235Z,996.17
2023-03-10T03:59:59.249Z,996.14
2023-03-10T04:00:59.237Z,996.16
2023-03-10T04:01:59.270Z,996.31
2023-03-10T04:02:59.231Z,996.27
2023-03-10T04:03:59.310Z,996.43
2023-03-10T04:04:59.268Z,996.36
2023-03-10T04:05:59.271Z,996.44
2023-03-10T04:06:59.268Z,996.16
2023-03-10T04:07:59.255Z,996.18
2023-03-10T04:08:59.238Z,996.18
2023-03-10T04:09:59.265Z,996.21
2023-03-10T04:10:59.240Z,996.2
2023-03-10T04:11:59.229Z,996.1
2023-03-10T04:12:59.251Z,996.06
2023-03-10T04:13:59.232Z,996.09
2023-03-10T04:14:59.252Z,996.04
2023-03-10T04:15:59.309Z,995.93
2023-03-10T04:16:59.238Z,995.94
2023-03-10T04:17:59.240Z,995.93
2023-03-10T04:18:59.242Z,995.93
2023-03-10T04:20:07.040Z,995.92
2023-03-10T04:20:59.243Z,995.92
2023-03-10T04:21:59.235Z,995.92
2023-03-10T04:22:59.234Z,995.9
2023-03-10T04:23:59.231Z,996.07
2023-03-10T04:24:59.244Z,995.98
2023-03-10T04:25:59.226Z,995.92
2023-03-10T04:26:59.234Z,996.24
2023-03-10T04:27:59.237Z,996.03
2023-03-10T04:28:59.238Z,995.95
2023-03-10T04:29:59.405Z,996.04
2023-03-10T04:30:59.334Z,996.04
2023-03-10T04:32:05.646Z,996
2023-03-10T04:32:59.424Z,995.89
2023-03-10T04:33:59.245Z,996.04
2023-03-10T04:34:59.254Z,995.74
2023-03-10T04:35:59.277Z,995.87
2023-03-10T04:36:59.244Z,995.96
2023-03-10T04:37:59.237Z,995.97
2023-03-10T04:38:59.233Z,995.53
2023-03-10T04:39:59.280Z,995.68
2023-03-10T04:40:59.245Z,995.72
2023-03-10T04:41:59.235Z,995.58
2023-03-10T04:42:59.243Z,995.66
2023-03-10T04:43:59.247Z,995.5
2023-03-10T04:44:59.255Z,995.56
2023-03-10T04:45:59.276Z,995.51
2023-03-10T04:46:59.248Z,995.33
2023-03-10T04:47:59.237Z,995.36
2023-03-10T04:48:59.240Z,995.29
2023-03-10T04:49:59.248Z,995.24
2023-03-10T04:50:59.247Z,995.36
2023-03-10T04:51:59.241Z,995.08
2023-03-10T04:52:59.245Z,995.16
2023-03-10T04:53:59.243Z,995.12
2023-03-10T04:54:59.254Z,995.27
2023-03-10T04:55:59.257Z,995.22
2023-03-10T04:56:59.244Z,995.94
2023-03-10T04:57:59.252Z,995.55
2023-03-10T04:58:59.244Z,995.39
2023-03-10T05:00:00.985Z,995.47
2023-03-10T05:01:03.308Z,995.74
2023-03-10T05:01:59.349Z,995.63
2023-03-10T05:02:59.244Z,995.41
2023-03-10T05:03:59.274Z,995.55
2023-03-10T05:04:59.269Z,995.51
2023-03-10T05:05:59.246Z,995.43
2023-03-10T05:06:59.234Z,995.38
2023-03-10T05:07:59.238Z,995.37
2023-03-10T05:08:59.234Z,995.37
2023-03-10T05:09:59.248Z,995.66
2023-03-10T05:10:59.229Z,995.35
2023-03-10T05:11:59.230Z,995.4
2023-03-10T05:12:59.238Z,995.27
2023-03-10T05:13:59.237Z,995.55
2023-03-10T05:14:59.269Z,995.44
2023-03-10T05:15:59.259Z,995.17
2023-03-10T05:16:59.248Z,995.26
2023-03-10T05:17:59.231Z,995.21
2023-03-10T05:18:59.232Z,995.06
2023-03-10T05:19:59.262Z,994.96
2023-03-10T05:20:59.251Z,995.44
2023-03-10T05:21:59.218Z,994.96
2023-03-10T05:22:59.230Z,995.21
2023-03-10T05:23:59.239Z,995.01
2023-03-10T05:24:59.264Z,995.09
2023-03-10T05:25:59.229Z,995.25
2023-03-10T05:26:59.242Z,995.12
2023-03-10T05:27:59.232Z,995.34
2023-03-10T05:28:59.237Z,995.25
2023-03-10T05:29:59.260Z,995.77
2023-03-10T05:30:59.256Z,995.08
2023-03-10T05:31:59.233Z,995.32
2023-03-10T05:32:59.326Z,995.03
2023-03-10T05:33:59.233Z,995.01
2023-03-10T05:34:59.255Z,995.08
2023-03-10T05:35:59.284Z,995.2
2023-03-10T05:36:59.233Z,995.22
2023-03-10T05:37:59.245Z,995.02
2023-03-10T05:38:59.236Z,994.99
2023-03-10T05:39:59.268Z,995.13
2023-03-10T05:40:59.256Z,995.09
2023-03-10T05:41:59.236Z,995.31
2023-03-10T05:42:59.234Z,994.97
2023-03-10T05:43:59.244Z,995
2023-03-10T05:44:59.233Z,994.9
2023-03-10T05:45:59.243Z,994.91
2023-03-10T05:46:59.328Z,994.89
2023-03-10T05:47:59.227Z,995.01
2023-03-10T05:48:59.238Z,995.12
2023-03-10T05:49:59.258Z,994.89
2023-03-10T05:50:59.260Z,995.41
2023-03-10T05:51:59.239Z,994.97
2023-03-10T05:52:59.227Z,995.06
2023-03-10T05:53:59.240Z,995.04
2023-03-10T05:54:59.277Z,995.02
2023-03-10T05:55:59.238Z,994.97
2023-03-10T05:56:59.237Z,995.02
2023-03-10T05:57:59.241Z,994.98
2023-03-10T05:58:59.238Z,994.86
2023-03-10T05:59:59.286Z,994.93
2023-03-10T06:00:59.234Z,994.89
2023-03-10T06:01:59.235Z,994.81
2023-03-10T06:02:59.315Z,995.07
2023-03-10T06:03:59.301Z,995.07
2023-03-10T06:04:59.236Z,994.89
2023-03-10T06:05:59.233Z,994.93
2023-03-10T06:06:59.239Z,995
2023-03-10T06:07:59.226Z,995.13
2023-03-10T06:08:59.252Z,995.13
2023-03-10T06:09:59.263Z,995.03
2023-03-10T06:10:59.234Z,995.05
2023-03-10T06:11:59.233Z,995.21
2023-03-10T06:12:59.243Z,994.9
2023-03-10T06:13:59.244Z,995.11
2023-03-10T06:14:59.234Z,995.01
2023-03-10T06:15:59.381Z,995.15
2023-03-10T06:16:59.241Z,994.93
2023-03-10T06:17:59.231Z,994.98
2023-03-10T06:18:59.256Z,994.99
2023-03-10T06:19:59.272Z,995.01
2023-03-10T06:20:59.241Z,994.99
2023-03-10T06:21:59.246Z,995.06
2023-03-10T06:22:59.255Z,994.96
2023-03-10T06:23:59.282Z,994.99
2023-03-10T06:24:59.251Z,994.98
2023-03-10T06:25:59.250Z,994.97
2023-03-10T06:26:59.232Z,994.94
2023-03-10T06:27:59.236Z,995.11
2023-03-10T06:28:59.232Z,994.9
2023-03-10T06:29:59.262Z,995.12
2023-03-10T06:30:59.244Z,994.9
2023-03-10T06:31:59.275Z,994.89
2023-03-10T06:32:59.263Z,994.81
2023-03-10T06:33:59.239Z,994.83
2023-03-10T06:34:59.267Z,994.82
2023-03-10T06:35:59.289Z,994.82
2023-03-10T06:36:59.248Z,994.75
2023-03-10T06:37:59.240Z,994.76
2023-03-10T06:38:59.248Z,994.67
2023-03-10T06:39:59.262Z,994.91
2023-03-10T06:40:59.252Z,994.7
2023-03-10T06:41:59.251Z,994.9
2023-03-10T06:42:59.235Z,994.66
2023-03-10T06:43:59.251Z,994.76
2023-03-10T06:44:59.275Z,994.93
2023-03-10T06:45:59.282Z,994.78
2023-03-10T06:46:59.243Z,994.62
2023-03-10T06:47:59.263Z,994.69
2023-03-10T06:48:59.237Z,994.79
2023-03-10T06:49:59.252Z,994.82
2023-03-10T06:50:59.237Z,994.82
2023-03-10T06:51:59.250Z,994.92
2023-03-10T06:52:59.247Z,994.88
2023-03-10T06:53:59.231Z,994.83
2023-03-10T06:54:59.263Z,995.58
2023-03-10T06:55:59.239Z,994.96
2023-03-10T06:56:59.239Z,995.19
2023-03-10T06:57:59.245Z,995.04
2023-03-10T06:58:59.238Z,994.94
2023-03-10T06:59:59.272Z,995.19
2023-03-10T07:00:59.285Z,995.06
2023-03-10T07:01:59.253Z,995.19
2023-03-10T07:02:59.243Z,995.41
2023-03-10T07:03:59.254Z,995.15
2023-03-10T07:04:59.367Z,995.08
2023-03-10T07:05:59.241Z,995.09
2023-03-10T07:06:59.233Z,995.19
2023-03-10T07:07:59.249Z,995.1
2023-03-10T07:08:59.259Z,995.1
2023-03-10T07:09:59.275Z,995.1
2023-03-10T07:10:59.228Z,995.34
2023-03-10T07:11:59.252Z,995.07
2023-03-10T07:12:59.228Z,995.02
2023-03-10T07:13:59.238Z,995
2023-03-10T07:14:59.248Z,995.31
2023-03-10T07:15:59.243Z,995.1
2023-03-10T07:16:59.285Z,995.09
2023-03-10T07:17:59.277Z,995.17
2023-03-10T07:18:59.235Z,995.15
2023-03-10T07:19:59.253Z,995.28
2023-03-10T07:20:59.236Z,995.38
2023-03-10T07:21:59.240Z,995.17
2023-03-10T07:22:59.230Z,994.98
2023-03-10T07:23:59.234Z,995.09
2023-03-10T07:24:59.258Z,995.09
2023-03-10T07:25:59.228Z,995.39
2023-03-10T07:26:59.248Z,995.13
2023-03-10T07:27:59.241Z,995.29
2023-03-10T07:28:59.236Z,995.22
2023-03-10T07:29:59.260Z,995.08
2023-03-10T07:30:59.268Z,995.58
2023-03-10T07:31:59.238Z,995.13
2023-03-10T07:32:59.242Z,994.94
2023-03-10T07:33:59.235Z,995.08
2023-03-10T07:34:59.252Z,995
2023-03-10T07:35:59.305Z,994.87
2023-03-10T07:36:59.236Z,995.02
2023-03-10T07:37:59.246Z,994.89
2023-03-10T07:38:59.238Z,994.89
2023-03-10T07:39:59.257Z,994.85
2023-03-10T07:41:01.817Z,995
2023-03-10T07:41:59.238Z,994.89
2023-03-10T07:42:59.233Z,995.05
2023-03-10T07:43:59.233Z,995.09
2023-03-10T07:44:59.260Z,995.06
2023-03-10T07:45:59.329Z,995.11
2023-03-10T07:46:59.231Z,994.96
2023-03-10T07:47:59.241Z,995.13
2023-03-10T07:48:59.230Z,995.52
2023-03-10T07:49:59.249Z,994.96
2023-03-10T07:50:59.217Z,995.14
2023-03-10T07:51:59.256Z,995.31
2023-03-10T07:52:59.224Z,995.07
2023-03-10T07:53:59.236Z,995.1
2023-03-10T07:54:59.257Z,995.09
2023-03-10T07:55:59.238Z,995.17
2023-03-10T07:56:59.236Z,995.25
2023-03-10T07:57:59.231Z,995.1
2023-03-10T07:58:59.245Z,995.15
2023-03-10T07:59:59.244Z,995.19
2023-03-10T08:00:59.248Z,994.96
2023-03-10T08:01:59.225Z,995.11
2023-03-10T08:02:59.271Z,995.06
2023-03-10T08:03:59.396Z,995.28
2023-03-10T08:04:59.286Z,995.16
2023-03-10T08:05:59.236Z,995.25
2023-03-10T08:06:59.233Z,995.09
2023-03-10T08:07:59.232Z,995.22
2023-03-10T08:08:59.247Z,995.22
2023-03-10T08:09:59.238Z,995.34
2023-03-10T08:10:59.238Z,995.2
2023-03-10T08:11:59.239Z,995.19
2023-03-10T08:12:59.237Z,995.1
2023-03-10T08:13:59.356Z,995.12
2023-03-10T08:14:59.243Z,995.08
2023-03-10T08:15:59.374Z,995.09
2023-03-10T08:16:59.272Z,995.07
2023-03-10T08:17:59.243Z,995.01
2023-03-10T08:18:59.240Z,995.33
2023-03-10T08:19:59.234Z,995.1
2023-03-10T08:20:59.237Z,995.43
2023-03-10T08:21:59.249Z,995.1
2023-03-10T08:22:59.240Z,995.03
2023-03-10T08:23:59.229Z,995.27
2023-03-10T08:24:59.264Z,995.11
2023-03-10T08:25:59.224Z,995.21
2023-03-10T08:26:59.250Z,995.13
2023-03-10T08:27:59.233Z,995.11
2023-03-10T08:28:59.242Z,995.21
2023-03-10T08:29:59.256Z,995.16
2023-03-10T08:31:04.827Z,995.21
2023-03-10T08:31:59.279Z,995.08
2023-03-10T08:32:59.329Z,995.21
2023-03-10T08:33:59.235Z,995.17
2023-03-10T08:34:59.269Z,995.2
2023-03-10T08:35:59.294Z,995.17
2023-03-10T08:36:59.237Z,995.12
2023-03-10T08:37:59.217Z,995.08
2023-03-10T08:38:59.234Z,995.17
2023-03-10T08:39:59.263Z,995.09
2023-03-10T08:40:59.237Z,995.09
2023-03-10T08:41:59.238Z,995.04
2023-03-10T08:42:59.240Z,995.17
2023-03-10T08:43:59.251Z,995.13
2023-03-10T08:44:59.257Z,995.09
2023-03-10T08:45:59.239Z,995.09
2023-03-10T08:46:59.321Z,995.06
2023-03-10T08:47:59.228Z,995.1
2023-03-10T08:48:59.263Z,995.1
2023-03-10T08:49:59.257Z,995.24
2023-03-10T08:50:59.237Z,995.16
2023-03-10T08:51:59.231Z,995.21
2023-03-10T08:52:59.240Z,995.21
2023-03-10T08:53:59.240Z,995.26
2023-03-10T08:54:59.981Z,995.27
2023-03-10T08:55:59.243Z,995.29
2023-03-10T08:56:59.234Z,995.39
2023-03-10T08:57:59.241Z,995.33
2023-03-10T08:58:59.278Z,995.3
2023-03-10T08:59:59.248Z,995.4
2023-03-10T09:00:59.235Z,995.47
2023-03-10T09:01:59.326Z,995.39
2023-03-10T09:02:59.357Z,995.3
2023-03-10T09:03:59.233Z,995.35
2023-03-10T09:04:59.258Z,995.36
2023-03-10T09:05:59.221Z,995.3
2023-03-10T09:06:59.245Z,995.14
2023-03-10T09:07:59.239Z,995.23
2023-03-10T09:08:59.224Z,995.23
2023-03-10T09:09:59.298Z,995.25
2023-03-10T09:10:59.228Z,995.21
2023-03-10T09:11:59.238Z,995.13
2023-03-10T09:13:12.938Z,995.12
2023-03-10T09:13:59.276Z,995.16
2023-03-10T09:14:59.258Z,995.1
2023-03-10T09:15:59.322Z,995.01
2023-03-10T09:16:59.438Z,994.92
2023-03-10T09:17:59.234Z,994.99
2023-03-10T09:18:59.249Z,995
2023-03-10T09:19:59.266Z,995.02
2023-03-10T09:20:59.233Z,994.98
2023-03-10T09:21:59.228Z,995.06
2023-03-10T09:22:59.235Z,994.98
2023-03-10T09:23:59.243Z,994.94
2023-03-10T09:25:00.747Z,994.86
2023-03-10T09:25:59.266Z,994.88
2023-03-10T09:26:59.236Z,994.86
2023-03-10T09:27:59.228Z,994.81
2023-03-10T09:28:59.238Z,994.75
2023-03-10T09:30:01.214Z,994.79
2023-03-10T09:30:59.239Z,994.81
2023-03-10T09:31:59.279Z,994.8
2023-03-10T09:32:59.317Z,994.78
2023-03-10T09:33:59.239Z,994.8
2023-03-10T09:34:59.259Z,994.79
2023-03-10T09:36:59.234Z,994.92
2023-03-10T09:37:59.238Z,994.81
2023-03-10T09:38:59.236Z,994.79
2023-03-10T09:39:59.266Z,994.77
2023-03-10T09:40:59.239Z,994.86
2023-03-10T09:41:59.238Z,994.91
2023-03-10T09:42:59.235Z,994.78
2023-03-10T09:43:59.244Z,994.76
2023-03-10T09:44:59.256Z,994.81
2023-03-10T09:45:59.307Z,994.79
2023-03-10T09:46:59.236Z,994.88
2023-03-10T09:47:59.226Z,994.99
2023-03-10T09:48:59.246Z,994.83
2023-03-10T09:49:59.264Z,994.88
2023-03-10T09:50:59.241Z,994.83
2023-03-10T09:51:59.233Z,994.79
2023-03-10T09:52:59.245Z,994.84
2023-03-10T09:53:59.233Z,994.87
2023-03-10T09:54:59.260Z,994.78
2023-03-10T09:55:59.250Z,994.79
2023-03-10T09:56:59.244Z,994.68
2023-03-10T09:57:59.238Z,994.82
2023-03-10T09:58:59.248Z,994.74
2023-03-10T09:59:59.267Z,994.87
2023-03-10T10:00:59.278Z,994.89
2023-03-10T10:01:59.248Z,994.82
2023-03-10T10:02:59.247Z,994.93
2023-03-10T10:03:59.420Z,994.84
2023-03-10T10:04:59.878Z,994.83
2023-03-10T10:05:59.232Z,994.8
2023-03-10T10:06:59.250Z,994.79
2023-03-10T10:07:59.248Z,994.91
2023-03-10T10:09:04.571Z,994.91
2023-03-10T10:09:59.252Z,994.73
2023-03-10T10:10:59.237Z,994.74
2023-03-10T10:11:59.231Z,994.74
2023-03-10T10:12:59.247Z,994.73
2023-03-10T10:14:01.588Z,994.71
2023-03-10T10:14:59.256Z,994.84
2023-03-10T10:16:18.192Z,994.79
2023-03-10T10:16:59.353Z,994.77
2023-03-10T10:18:08.657Z,994.76
2023-03-10T10:18:59.256Z,994.78
2023-03-10T10:19:59.265Z,994.78
2023-03-10T10:20:59.370Z,994.8
2023-03-10T10:21:59.235Z,994.76
2023-03-10T10:22:59.244Z,994.76
2023-03-10T10:23:59.253Z,994.81
2023-03-10T10:24:59.248Z,994.81
2023-03-10T10:26:00.864Z,994.85
2023-03-10T10:26:59.232Z,994.81
2023-03-10T10:27:59.233Z,994.73
2023-03-10T10:28:59.233Z,994.76
2023-03-10T10:29:59.258Z,994.79
2023-03-10T10:30:59.267Z,994.76
2023-03-10T10:31:59.238Z,994.9
2023-03-10T10:32:59.345Z,994.73
2023-03-10T10:33:59.239Z,994.76
2023-03-10T10:34:59.256Z,994.73
2023-03-10T10:35:59.356Z,994.79
2023-03-10T10:36:59.236Z,994.8
2023-03-10T10:37:59.233Z,994.81
2023-03-10T10:38:59.253Z,994.8
2023-03-10T10:39:59.246Z,994.82
2023-03-10T10:40:59.233Z,994.79
2023-03-10T10:41:59.240Z,994.74
2023-03-10T10:42:59.239Z,994.75
2023-03-10T10:43:59.236Z,994.78
2023-03-10T10:44:59.255Z,994.83
2023-03-10T10:45:59.289Z,994.79
2023-03-10T10:46:59.243Z,994.67
2023-03-10T10:47:59.250Z,994.79
2023-03-10T10:48:59.236Z,994.8
2023-03-10T10:49:59.263Z,994.78
2023-03-10T10:50:59.231Z,994.8
2023-03-10T10:51:59.236Z,994.78
2023-03-10T10:52:59.236Z,994.68
2023-03-10T10:53:59.246Z,994.71
2023-03-10T10:54:59.252Z,994.71
2023-03-10T10:55:59.247Z,994.77
2023-03-10T10:56:59.238Z,994.79
2023-03-10T10:58:01.286Z,994.76
2023-03-10T10:58:59.254Z,994.68
2023-03-10T10:59:59.254Z,994.69
2023-03-10T11:00:59.367Z,994.64
2023-03-10T11:01:59.251Z,994.67
2023-03-10T11:02:59.246Z,994.8
2023-03-10T11:03:59.246Z,994.71
2023-03-10T11:04:59.253Z,994.63
2023-03-10T11:05:59.243Z,994.71
2023-03-10T11:06:59.239Z,994.65
2023-03-10T11:07:59.238Z,994.58
2023-03-10T11:08:59.238Z,994.58
2023-03-10T11:09:59.244Z,994.57
2023-03-10T11:10:59.238Z,994.64
2023-03-10T11:11:59.233Z,994.56
2023-03-10T11:12:59.250Z,994.57
2023-03-10T11:13:59.229Z,994.63
2023-03-10T11:14:59.264Z,994.61
2023-03-10T11:15:59.282Z,994.61
2023-03-10T11:16:59.236Z,994.65
2023-03-10T11:17:59.226Z,994.61
2023-03-10T11:18:59.245Z,994.51
2023-03-10T11:19:59.249Z,994.51
2023-03-10T11:20:59.248Z,994.45
2023-03-10T11:21:59.242Z,994.46
2023-03-10T11:22:59.260Z,994.46
2023-03-10T11:23:59.252Z,994.43
2023-03-10T11:24:59.256Z,994.48
2023-03-10T11:25:59.262Z,994.42
2023-03-10T11:26:59.252Z,994.56
2023-03-10T11:27:59.245Z,994.38
2023-03-10T11:28:59.281Z,994.4
2023-03-10T11:29:59.288Z,994.31
2023-03-10T11:30:59.327Z,994.46
2023-03-10T11:31:59.333Z,994.32
2023-03-10T11:32:59.236Z,994.27
2023-03-10T11:33:59.236Z,994.3
2023-03-10T11:34:59.258Z,994.3
2023-03-10T11:36:01.135Z,994.3
2023-03-10T11:36:59.248Z,994.19
2023-03-10T11:37:59.262Z,994.3
2023-03-10T11:38:59.245Z,994.22
2023-03-10T11:39:59.259Z,994.24
2023-03-10T11:40:59.252Z,994.17
2023-03-10T11:41:59.337Z,994.17
2023-03-10T11:42:59.244Z,994.11
2023-03-10T11:43:59.259Z,994.08
2023-03-10T11:44:59.250Z,993.97
2023-03-10T11:45:59.301Z,993.96
2023-03-10T11:46:59.251Z,993.92
2023-03-10T11:47:59.229Z,993.91
2023-03-10T11:48:59.250Z,993.93
2023-03-10T11:49:59.281Z,993.87
2023-03-10T11:50:59.281Z,993.91
2023-03-10T11:51:59.255Z,993.94
2023-03-10T11:52:59.244Z,993.94
2023-03-10T11:53:59.249Z,993.99
2023-03-10T11:54:59.270Z,994
2023-03-10T11:55:59.240Z,994.01
2023-03-10T11:56:59.237Z,994.06
2023-03-10T11:57:59.236Z,994.08
2023-03-10T11:58:59.243Z,994.05
2023-03-10T11:59:59.278Z,994.04
2023-03-10T12:00:59.245Z,994.05
2023-03-10T12:01:59.342Z,993.88
2023-03-10T12:02:59.239Z,993.86
2023-03-10T12:03:59.357Z,993.89
2023-03-10T12:04:59.326Z,993.85
2023-03-10T12:05:59.250Z,993.91
2023-03-10T12:06:59.246Z,993.91
2023-03-10T12:07:59.232Z,993.81
2023-03-10T12:08:59.245Z,993.81
2023-03-10T12:09:59.282Z,993.82
2023-03-10T12:10:59.239Z,993.74
2023-03-10T12:11:59.234Z,993.7
2023-03-10T12:12:59.242Z,993.81
2023-03-10T12:13:59.248Z,993.83
2023-03-10T12:14:59.261Z,993.8
2023-03-10T12:15:59.328Z,993.81
2023-03-10T12:16:59.241Z,993.76
2023-03-10T12:17:59.245Z,993.75
2023-03-10T12:18:59.236Z,993.84
2023-03-10T12:19:59.262Z,993.76
2023-03-10T12:20:59.239Z,993.73
2023-03-10T12:21:59.241Z,993.74
2023-03-10T12:22:59.252Z,993.67
2023-03-10T12:23:59.230Z,993.64
2023-03-10T12:24:59.266Z,993.63
2023-03-10T12:25:59.239Z,993.64
2023-03-10T12:26:59.287Z,993.61
2023-03-10T12:27:59.251Z,993.6
2023-03-10T12:28:59.232Z,993.6
2023-03-10T12:29:59.264Z,993.58
2023-03-10T12:30:59.264Z,993.63
2023-03-10T12:31:59.441Z,993.58
2023-03-10T12:32:59.333Z,993.52